createdAt,value
2023-12-01T00:00:59.664Z,95255.31
2023-12-01T00:03:49.516Z,95246.53
2023-12-01T00:06:38.809Z,95242.84
2023-12-01T00:09:26.902Z,95260.72
2023-12-01T00:12:14.937Z,95277.00
2023-12-01T00:15:02.947Z,95274.78
2023-12-01T00:17:51.866Z,95276.00
2023-12-01T00:20:41.374Z,95265.69
2023-12-01T00:23:30.209Z,95253.34
2023-12-01T00:26:18.203Z,95274.66
2023-12-01T00:29:06.195Z,95281.34
2023-12-01T00:31:54.248Z,95275.72
2023-12-01T00:34:42.620Z,95281.44
2023-12-01T00:37:32.583Z,95297.84
2023-12-01T00:40:20.781Z,95312.72
2023-12-01T00:43:10.905Z,95301.59
2023-12-01T00:45:59.014Z,95304.59
2023-12-01T00:48:47.084Z,95321.94
2023-12-01T00:51:35.072Z,95330.16
2023-12-01T00:54:27.309Z,95333.28
2023-12-01T00:57:15.621Z,95331.00
2023-12-01T01:00:05.678Z,95331.00
2023-12-01T01:02:53.738Z,95355.00
2023-12-01T01:05:42.057Z,95338.72
2023-12-01T01:08:31.096Z,95340.69
2023-12-01T01:11:22.705Z,95350.38
2023-12-01T01:14:11.392Z,95357.78
2023-12-01T01:16:59.720Z,95371.59
2023-12-01T01:19:47.744Z,95368.78
2023-12-01T01:22:35.867Z,95371.59
2023-12-01T01:25:23.818Z,95388.66
2023-12-01T01:28:13.212Z,95381.63
2023-12-01T01:31:01.209Z,95385.97
2023-12-01T01:33:49.249Z,95403.38
2023-12-01T01:36:37.333Z,95397.66
2023-12-01T01:39:25.325Z,95396.31
2023-12-01T01:42:14.112Z,95396.84
2023-12-01T01:45:03.499Z,95398.13
2023-12-01T01:47:53.782Z,95394.03
2023-12-01T01:50:42.461Z,95393.13
2023-12-01T01:53:31.410Z,95431.44
2023-12-01T01:56:19.736Z,95444.19
2023-12-01T01:59:07.733Z,95468.28
2023-12-01T02:01:58.239Z,95436.44
2023-12-01T02:04:46.626Z,95431.53
2023-12-01T02:07:34.631Z,95423.50
2023-12-01T02:10:22.583Z,95430.16
2023-12-01T02:13:11.562Z,95402.81
2023-12-01T02:16:01.082Z,95407.75
2023-12-01T02:18:52.684Z,95428.25
2023-12-01T02:21:44.850Z,95430.44
2023-12-01T02:24:32.847Z,95424.22
2023-12-01T02:27:20.789Z,95420.13
2023-12-01T02:30:12.168Z,95437.31
2023-12-01T02:33:00.417Z,95440.50
2023-12-01T02:35:48.938Z,95472.28
2023-12-01T02:38:38.337Z,95475.25
2023-12-01T02:41:26.344Z,95522.50
2023-12-01T02:44:14.400Z,95524.72
2023-12-01T02:47:02.406Z,95553.66
2023-12-01T02:49:50.368Z,95581.06
2023-12-01T02:52:38.558Z,95565.31
2023-12-01T02:55:28.110Z,95579.53
2023-12-01T02:58:16.215Z,95577.16
2023-12-01T03:01:04.556Z,95608.47
2023-12-01T03:03:53.018Z,95611.06
2023-12-01T03:06:41.140Z,95594.16
2023-12-01T03:09:29.110Z,95582.38
2023-12-01T03:12:18.437Z,95578.81
2023-12-01T03:15:09.830Z,95582.16
2023-12-01T03:18:00.019Z,95593.13
2023-12-01T03:20:48.068Z,95574.38
2023-12-01T03:23:36.062Z,95610.47
2023-12-01T03:26:24.094Z,95612.84
2023-12-01T03:29:13.594Z,95661.41
2023-12-01T03:32:01.565Z,95768.94
2023-12-01T03:34:49.545Z,95774.22
2023-12-01T03:37:37.513Z,95775.47
2023-12-01T03:40:26.462Z,95793.28
2023-12-01T03:43:14.538Z,95782.88
2023-12-01T03:46:05.425Z,95801.75
2023-12-01T03:48:53.702Z,95735.09
2023-12-01T03:51:41.730Z,95721.38
2023-12-01T03:54:29.725Z,95772.91
2023-12-01T03:57:17.712Z,95792.25
2023-12-01T04:00:09.095Z,95789.19
2023-12-01T04:02:58.378Z,95797.31
2023-12-01T04:05:46.391Z,95816.25
2023-12-01T04:08:34.911Z,95841.41
2023-12-01T04:11:22.962Z,95846.25
2023-12-01T04:14:10.971Z,95836.31
2023-12-01T04:16:58.916Z,95846.47
2023-12-01T04:19:49.312Z,95869.34
2023-12-01T04:22:37.405Z,95874.72
2023-12-01T04:25:25.835Z,95888.72
2023-12-01T04:28:14.109Z,95914.41
2023-12-01T04:31:07.633Z,95910.56
2023-12-01T04:34:01.846Z,95900.13
2023-12-01T04:36:53.228Z,95899.63
2023-12-01T04:39:41.315Z,95910.03
2023-12-01T04:42:29.313Z,95922.50
2023-12-01T04:45:18.847Z,95919.69
2023-12-01T04:48:09.306Z,95935.97
2023-12-01T04:50:57.852Z,95914.34
2023-12-01T04:53:47.132Z,95924.28
2023-12-01T04:56:35.500Z,95915.88
2023-12-01T04:59:23.458Z,95921.44
2023-12-01T05:02:11.440Z,95913.53
2023-12-01T05:04:59.540Z,95921.16
2023-12-01T05:07:50.693Z,95915.56
2023-12-01T05:10:45.763Z,95928.03
2023-12-01T05:13:33.894Z,95843.84
2023-12-01T05:16:21.916Z,95834.88
2023-12-01T05:19:11.935Z,95841.47
2023-12-01T05:21:59.967Z,95681.72
2023-12-01T05:24:47.951Z,95713.00
2023-12-01T05:27:37.397Z,95814.47
2023-12-01T05:30:27.210Z,95873.22
2023-12-01T05:33:15.259Z,95913.94
2023-12-01T05:36:03.274Z,95948.28
2023-12-01T05:38:51.348Z,95980.31
2023-12-01T05:41:39.314Z,95975.47
2023-12-01T05:44:28.588Z,95991.75
2023-12-01T05:47:16.800Z,96038.31
2023-12-01T05:50:06.463Z,96073.19
2023-12-01T05:52:56.109Z,96118.47
2023-12-01T05:55:44.434Z,96117.97
2023-12-01T05:58:32.451Z,96142.66
2023-12-01T06:01:21.874Z,96159.72
2023-12-01T06:04:09.984Z,96177.53
2023-12-01T06:06:57.966Z,96205.78
2023-12-01T06:09:46.600Z,96231.47
2023-12-01T06:12:34.656Z,96245.47
2023-12-01T06:15:22.744Z,96264.59
2023-12-01T06:18:12.100Z,96304.81
2023-12-01T06:21:00.120Z,96352.44
2023-12-01T06:23:48.106Z,96387.81
2023-12-01T06:26:36.860Z,96427.53
2023-12-01T06:29:25.659Z,96471.84
2023-12-01T06:32:14.741Z,96490.44
2023-12-01T06:35:04.372Z,96511.56
2023-12-01T06:37:52.595Z,96540.63
2023-12-01T06:40:40.639Z,96558.94
2023-12-01T06:43:28.685Z,96588.00
2023-12-01T06:46:16.783Z,96611.44
2023-12-01T06:49:04.852Z,96636.91
2023-12-01T06:51:54.166Z,96679.16
2023-12-01T06:54:42.217Z,96710.25
2023-12-01T06:57:30.123Z,96746.97
2023-12-01T07:00:31.254Z,96763.78
2023-12-01T07:03:20.430Z,96808.63
2023-12-01T07:06:10.286Z,96846.84
2023-12-01T07:09:00.007Z,96876.91
2023-12-01T07:11:48.063Z,96925.31
2023-12-01T07:14:37.626Z,96956.41
2023-12-01T07:17:25.743Z,96972.22
2023-12-01T07:20:15.711Z,96996.69
2023-12-01T07:23:05.853Z,97031.91
2023-12-01T07:25:56.954Z,97080.31
2023-12-01T07:28:45.021Z,97127.94
2023-12-01T07:31:34.682Z,97178.66
2023-12-01T07:34:22.708Z,97240.34
2023-12-01T07:37:11.495Z,97274.25
2023-12-01T07:39:59.699Z,97324.97
2023-12-01T07:42:49.927Z,97389.69
2023-12-01T07:45:38.059Z,97433.31
2023-12-01T07:48:26.170Z,97492.81
2023-12-01T07:51:14.214Z,97539.13
2023-12-01T07:54:02.242Z,97609.03
2023-12-01T07:56:50.220Z,97671.78
2023-12-01T07:59:39.689Z,97733.72
2023-12-01T08:02:28.460Z,97771.50
2023-12-01T08:05:18.027Z,97836.00
2023-12-01T08:08:07.189Z,97888.78
2023-12-01T08:10:55.258Z,97938.22
2023-12-01T08:13:43.290Z,97961.28
2023-12-01T08:16:32.803Z,98041.66
2023-12-01T08:19:21.062Z,98094.97
2023-12-01T08:22:09.278Z,98136.13
2023-12-01T08:24:57.447Z,98184.56
2023-12-01T08:27:45.429Z,98215.38
2023-12-01T08:30:33.460Z,98268.84
2023-12-01T08:33:22.853Z,98332.84
2023-12-01T08:36:12.437Z,98382.22
2023-12-01T08:39:07.426Z,98438.31
2023-12-01T08:41:57.713Z,98516.00
2023-12-01T08:44:45.856Z,98571.13
2023-12-01T08:47:33.920Z,98615.25
2023-12-01T08:50:23.891Z,98649.19
2023-12-01T08:53:16.170Z,98682.97
2023-12-01T08:56:04.483Z,98704.53
2023-12-01T08:58:52.590Z,98756.94
2023-12-01T09:01:41.992Z,98788.72
2023-12-01T09:04:30.051Z,98809.31
2023-12-01T09:07:19.449Z,98848.38
2023-12-01T09:10:08.341Z,98874.88
2023-12-01T09:12:56.294Z,98919.63
2023-12-01T09:15:44.643Z,98939.06
2023-12-01T09:18:32.662Z,98970.84
2023-12-01T09:21:20.653Z,99044.66
2023-12-01T09:24:10.236Z,99058.00
2023-12-01T09:26:58.284Z,99095.34
2023-12-01T09:29:46.335Z,99111.63
2023-12-01T09:32:34.313Z,99135.22
2023-12-01T09:35:54.090Z,99168.97
2023-12-01T09:38:32.617Z,99193.75
2023-12-01T09:41:21.885Z,99234.19
2023-12-01T09:44:13.871Z,99268.34
2023-12-01T09:47:05.240Z,99306.16
2023-12-01T09:49:53.414Z,99330.47
2023-12-01T09:52:41.745Z,99367.59
2023-12-01T09:55:30.326Z,99387.78
2023-12-01T09:58:20.594Z,99414.88
2023-12-01T10:01:09.359Z,99412.09
2023-12-01T10:03:57.546Z,99456.31
2023-12-01T10:06:46.292Z,99456.69
2023-12-01T10:09:35.023Z,99455.69
2023-12-01T10:12:23.154Z,99462.75
2023-12-01T10:15:13.579Z,99487.47
2023-12-01T10:18:16.531Z,99489.50
2023-12-01T10:21:08.973Z,99500.41
2023-12-01T10:23:57.605Z,99506.66
2023-12-01T10:26:47.168Z,99498.22
2023-12-01T10:29:35.278Z,99502.78
2023-12-01T10:32:24.964Z,99519.69
2023-12-01T10:35:13.243Z,99532.44
2023-12-01T10:38:01.295Z,99532.63
2023-12-01T10:40:49.447Z,99538.16
2023-12-01T10:43:38.046Z,99560.16
2023-12-01T10:46:28.644Z,99560.16
2023-12-01T10:49:18.767Z,99585.06
2023-12-01T10:52:13.595Z,99578.44
2023-12-01T10:55:01.670Z,99593.97
2023-12-01T10:57:50.066Z,99601.09
2023-12-01T11:00:38.070Z,99592.16
2023-12-01T11:03:30.864Z,99612.56
2023-12-01T11:06:31.199Z,99601.03
2023-12-01T11:09:26.497Z,99609.00
2023-12-01T11:12:25.691Z,99616.88
2023-12-01T11:15:18.261Z,99625.78
2023-12-01T11:18:09.268Z,99649.47
2023-12-01T11:20:57.316Z,99655.28
2023-12-01T11:23:47.019Z,99670.13
2023-12-01T11:26:35.441Z,99652.28
2023-12-01T11:29:30.192Z,99657.81
2023-12-01T11:32:18.444Z,99645.97
2023-12-01T11:35:08.318Z,99640.72
2023-12-01T11:38:04.920Z,99633.53
2023-12-01T11:40:54.386Z,99620.59
2023-12-01T11:44:08.311Z,99619.28
2023-12-01T11:47:03.507Z,99622.13
2023-12-01T11:49:54.995Z,99619.81
2023-12-01T11:52:46.047Z,99614.19
2023-12-01T11:55:35.007Z,99614.53
2023-12-01T11:58:24.825Z,99608.38
2023-12-01T12:01:13.807Z,99609.25
2023-12-01T12:04:05.853Z,99612.84
2023-12-01T12:06:54.459Z,99626.31
2023-12-01T12:09:45.715Z,99631.97
2023-12-01T12:12:33.952Z,99632.84
2023-12-01T12:15:24.058Z,99650.53
2023-12-01T12:18:14.861Z,99660.47
2023-12-01T12:21:04.143Z,99675.97
2023-12-01T12:23:52.237Z,99663.47
2023-12-01T12:26:41.301Z,99670.00
2023-12-01T12:29:29.634Z,99675.16
2023-12-01T12:32:19.202Z,99679.56
2023-12-01T12:35:07.983Z,99680.75
2023-12-01T12:37:56.134Z,99709.06
2023-12-01T12:40:44.067Z,99722.44
2023-12-01T12:43:33.192Z,99735.31
2023-12-01T12:46:21.283Z,99754.38
2023-12-01T12:49:11.773Z,99773.69
2023-12-01T12:52:00.969Z,99766.91
2023-12-01T12:54:49.104Z,99785.75
2023-12-01T12:57:37.127Z,99807.75
2023-12-01T13:00:25.123Z,99828.53
2023-12-01T13:03:13.675Z,99839.97
2023-12-01T13:06:03.156Z,99836.34
2023-12-01T13:08:51.455Z,99850.09
2023-12-01T13:11:39.409Z,99862.34
2023-12-01T13:14:27.523Z,99856.72
2023-12-01T13:17:15.964Z,99856.34
2023-12-01T13:20:06.127Z,99861.97
2023-12-01T13:22:55.784Z,99862.97
2023-12-01T13:25:43.916Z,99856.25
2023-12-01T13:28:32.102Z,99864.16
2023-12-01T13:31:20.928Z,99881.88
2023-12-01T13:34:09.435Z,99872.53
2023-12-01T13:36:57.526Z,99883.72
2023-12-01T13:39:47.056Z,99882.97
2023-12-01T13:42:36.414Z,99895.09
2023-12-01T13:45:24.516Z,99903.09
2023-12-01T13:48:12.612Z,99898.50
2023-12-01T13:51:01.508Z,99899.47
2023-12-01T13:53:50.366Z,99894.81
2023-12-01T13:56:39.883Z,99883.50
2023-12-01T13:59:27.870Z,99880.31
2023-12-01T14:02:15.988Z,99864.38
2023-12-01T14:05:04.080Z,99856.88
2023-12-01T14:07:52.479Z,99850.38
2023-12-01T14:10:40.533Z,99835.41
2023-12-01T14:13:29.849Z,99847.53
2023-12-01T14:16:17.887Z,99851.09
2023-12-01T14:19:05.941Z,99866.56
2023-12-01T14:21:53.953Z,99863.91
2023-12-01T14:24:42.068Z,99863.28
2023-12-01T14:27:29.997Z,99863.47
2023-12-01T14:30:19.519Z,99848.94
2023-12-01T14:33:08.005Z,99869.09
2023-12-01T14:35:56.597Z,99882.97
2023-12-01T14:38:44.651Z,99910.44
2023-12-01T14:41:32.640Z,99912.81
2023-12-01T14:44:21.144Z,99940.72
2023-12-01T14:47:10.569Z,99976.00
2023-12-01T14:49:59.137Z,99992.63
2023-12-01T14:52:47.402Z,99996.97
2023-12-01T14:55:35.495Z,99990.28
2023-12-01T14:58:23.517Z,99969.94
2023-12-01T15:01:11.513Z,99973.13
2023-12-01T15:04:00.937Z,99979.22
2023-12-01T15:06:59.743Z,100022.59
2023-12-01T15:09:47.959Z,100035.03
2023-12-01T15:12:37.740Z,100063.28
2023-12-01T15:15:26.199Z,100072.69
2023-12-01T15:18:15.023Z,100070.50
2023-12-01T15:21:04.774Z,100082.44
2023-12-01T15:23:53.358Z,100081.34
2023-12-01T15:26:41.396Z,100102.22
2023-12-01T15:29:29.755Z,100107.81
2023-12-01T15:32:17.741Z,100117.22
2023-12-01T15:35:06.400Z,100113.06
2023-12-01T15:37:55.770Z,100114.50
2023-12-01T15:40:43.882Z,100123.44
2023-12-01T15:43:32.629Z,100121.38
2023-12-01T15:46:20.602Z,100116.91
2023-12-01T15:49:09.893Z,100117.38
2023-12-01T15:51:57.900Z,100115.16
2023-12-01T15:54:47.211Z,100119.31
2023-12-01T15:57:35.208Z,100106.38
2023-12-01T16:00:23.771Z,100111.66
2023-12-01T16:03:12.912Z,100112.28
2023-12-01T16:06:01.580Z,100126.59
2023-12-01T16:08:49.729Z,100119.09
2023-12-01T16:11:39.010Z,100116.41
2023-12-01T16:14:26.950Z,100126.09
2023-12-01T16:17:20.023Z,100122.78
2023-12-01T16:20:09.660Z,100115.28
2023-12-01T16:22:57.729Z,100106.19
2023-12-01T16:25:46.993Z,100114.03
2023-12-01T16:28:36.327Z,100121.63
2023-12-01T16:31:24.361Z,100116.69
2023-12-01T16:34:12.339Z,100108.41
2023-12-01T16:37:00.445Z,100108.09
2023-12-01T16:39:48.530Z,100104.06
2023-12-01T16:42:36.617Z,100113.78
2023-12-01T16:45:26.134Z,100104.06
2023-12-01T16:48:15.375Z,100080.66
2023-12-01T16:51:03.925Z,100077.31
2023-12-01T16:53:53.095Z,100057.44
2023-12-01T16:56:41.099Z,100064.28
2023-12-01T16:59:29.057Z,100048.69
2023-12-01T17:02:18.532Z,100035.41
2023-12-01T17:05:07.290Z,100022.06
2023-12-01T17:07:55.254Z,100015.38
2023-12-01T17:10:43.244Z,99998.19
2023-12-01T17:13:31.849Z,99985.28
2023-12-01T17:16:19.979Z,99978.78
2023-12-01T17:19:09.455Z,99948.25
2023-12-01T17:21:57.995Z,99939.03
2023-12-01T17:24:46.036Z,99924.28
2023-12-01T17:27:34.006Z,99892.16
2023-12-01T17:30:22.126Z,99865.78
2023-12-01T17:33:11.112Z,99838.75
2023-12-01T17:36:00.966Z,99815.53
2023-12-01T17:38:49.151Z,99777.84
2023-12-01T17:41:37.654Z,99751.47
2023-12-01T17:44:25.668Z,99730.00
2023-12-01T17:47:13.616Z,99705.41
2023-12-01T17:50:02.494Z,99681.88
2023-12-01T17:52:51.768Z,99659.97
2023-12-01T17:55:39.764Z,99638.53
2023-12-01T17:58:27.988Z,99613.59
2023-12-01T18:01:16.226Z,99609.00
2023-12-01T18:04:04.658Z,99580.72
2023-12-01T18:06:52.766Z,99568.19
2023-12-01T18:09:42.124Z,99545.63
2023-12-01T18:12:30.587Z,99524.84
2023-12-01T18:15:18.938Z,99500.56
2023-12-01T18:18:06.950Z,99474.22
2023-12-01T18:20:55.026Z,99438.16
2023-12-01T18:23:42.984Z,99419.44
2023-12-01T18:26:34.181Z,99399.75
2023-12-01T18:29:23.815Z,99380.03
2023-12-01T18:32:11.823Z,99355.09
2023-12-01T18:34:59.763Z,99342.72
2023-12-01T18:37:47.715Z,99323.53
2023-12-01T18:40:36.000Z,99313.09
2023-12-01T18:43:25.489Z,99297.28
2023-12-01T18:46:13.536Z,99263.13
2023-12-01T18:49:01.537Z,99248.22
2023-12-01T18:51:49.897Z,99240.78
2023-12-01T18:54:39.595Z,99242.06
2023-12-01T18:57:27.628Z,99248.59
2023-12-01T19:00:18.442Z,99242.44
2023-12-01T19:03:06.659Z,99214.88
2023-12-01T19:05:54.693Z,99215.19
2023-12-01T19:08:42.784Z,99185.69
2023-12-01T19:11:30.732Z,99200.78
2023-12-01T19:14:18.724Z,99186.41
2023-12-01T19:17:08.868Z,99168.19
2023-12-01T19:19:56.858Z,99157.13
2023-12-01T19:22:44.887Z,99156.47
2023-12-01T19:25:32.961Z,99143.31
2023-12-01T19:28:22.016Z,99141.72
2023-12-01T19:31:13.203Z,99146.34
2023-12-01T19:34:02.602Z,99135.72
2023-12-01T19:36:50.643Z,99127.97
2023-12-01T19:39:38.652Z,99110.53
2023-12-01T19:42:26.768Z,99109.44
2023-12-01T19:45:15.174Z,99109.44
2023-12-01T19:48:03.412Z,99105.34
2023-12-01T19:51:01.237Z,99096.03
2023-12-01T19:53:49.652Z,99067.22
2023-12-01T19:56:38.636Z,99056.88
2023-12-01T19:59:26.704Z,99033.78
2023-12-01T20:02:14.749Z,99041.25
2023-12-01T20:05:02.847Z,99037.28
2023-12-01T20:07:53.732Z,99021.47
2023-12-01T20:10:43.147Z,99004.66
2023-12-01T20:13:31.157Z,98996.25
2023-12-01T20:16:19.322Z,98986.88
2023-12-01T20:19:09.615Z,98975.50
2023-12-01T20:21:57.779Z,98962.19
2023-12-01T20:24:47.128Z,98953.63
2023-12-01T20:27:35.360Z,98952.56
2023-12-01T20:30:23.397Z,98948.81
2023-12-01T20:33:11.498Z,98948.84
2023-12-01T20:35:59.598Z,98940.38
2023-12-01T20:38:47.947Z,98935.78
2023-12-01T20:41:37.337Z,98935.34
2023-12-01T20:44:26.265Z,98925.19
2023-12-01T20:47:14.383Z,98916.53
2023-12-01T20:50:02.596Z,98912.13
2023-12-01T20:52:51.809Z,98913.88
2023-12-01T20:55:43.948Z,98918.84
2023-12-01T20:58:36.030Z,98923.91
2023-12-01T21:01:24.023Z,98915.53
2023-12-01T21:04:12.016Z,98908.53
2023-12-01T21:07:00.097Z,98918.06
2023-12-01T21:09:48.316Z,98913.50
2023-12-01T21:12:36.293Z,98903.00
2023-12-01T21:15:25.733Z,98889.41
2023-12-01T21:18:14.161Z,98882.41
2023-12-01T21:21:02.246Z,98892.44
2023-12-01T21:23:50.273Z,98867.59
2023-12-01T21:26:38.457Z,98872.72
2023-12-01T21:29:26.392Z,98865.22
2023-12-01T21:32:15.858Z,98868.44
2023-12-01T21:35:04.234Z,98868.78
2023-12-01T21:37:52.312Z,98886.50
2023-12-01T21:40:44.382Z,98860.91
2023-12-01T21:43:32.482Z,98859.16
2023-12-01T21:46:20.482Z,98855.22
2023-12-01T21:49:10.244Z,98849.69
2023-12-01T21:51:58.587Z,98854.59
2023-12-01T21:54:46.590Z,98852.72
2023-12-01T21:57:34.658Z,98850.69
2023-12-01T22:00:22.745Z,98844.84
2023-12-01T22:03:11.886Z,98842.31
2023-12-01T22:06:01.340Z,98851.53
2023-12-01T22:08:49.570Z,98848.41
2023-12-01T22:11:40.209Z,98858.00
2023-12-01T22:14:28.154Z,98842.81
2023-12-01T22:17:16.207Z,98867.03
2023-12-01T22:20:04.678Z,98878.13
2023-12-01T22:22:54.096Z,98861.78
2023-12-01T22:25:42.081Z,98856.44
2023-12-01T22:28:30.080Z,98864.09
2023-12-01T22:31:18.143Z,98851.94
2023-12-01T22:34:06.422Z,98870.16
2023-12-01T22:36:55.448Z,98861.44
2023-12-01T22:39:44.831Z,98857.00
2023-12-01T22:42:32.840Z,98863.03
2023-12-01T22:45:21.919Z,98870.03
2023-12-01T22:48:10.550Z,98867.00
2023-12-01T22:50:58.680Z,98863.22
2023-12-01T22:53:46.739Z,98864.31
2023-12-01T22:56:36.124Z,98857.00
2023-12-01T22:59:24.146Z,98864.47
2023-12-01T23:02:12.208Z,98860.38
2023-12-01T23:05:00.507Z,98856.88
2023-12-01T23:07:48.570Z,98865.25
2023-12-01T23:10:36.528Z,98870.03
2023-12-01T23:13:25.886Z,98871.47
2023-12-01T23:16:16.552Z,98867.19
2023-12-01T23:19:04.890Z,98871.78
2023-12-01T23:21:53.162Z,98863.06
2023-12-01T23:24:43.761Z,98875.56
2023-12-01T23:27:35.600Z,98847.72
2023-12-01T23:30:25.487Z,98846.75
2023-12-01T23:33:13.678Z,98832.41
2023-12-01T23:36:01.847Z,98834.81
2023-12-01T23:38:49.886Z,98824.47
2023-12-01T23:41:37.824Z,98819.38
2023-12-01T23:44:25.820Z,98816.50
2023-12-01T23:47:15.295Z,98806.69
2023-12-01T23:50:03.992Z,98804.75
2023-12-01T23:52:51.972Z,98802.56
2023-12-01T23:55:39.986Z,98814.78
2023-12-01T23:58:27.978Z,98806.44
